sensor_id;sensor_type;location;lat;lon;timestamp;temperature;humidity
16970;DHT22;8601;48.718;8.992;2023-05-27T00:01:14;14.20;78.30
16970;DHT22;8601;48.718;8.992;2023-05-27T00:03:41;14.10;78.10
16970;DHT22;8601;48.718;8.992;2023-05-27T00:06:08;14.10;77.80
16970;DHT22;8601;48.718;8.992;2023-05-27T00:08:37;14.00;78.10
16970;DHT22;8601;48.718;8.992;2023-05-27T00:11:04;14.00;78.10
16970;DHT22;8601;48.718;8.992;2023-05-27T00:13:31;14.00;77.40
16970;DHT22;8601;48.718;8.992;2023-05-27T00:15:57;14.00;77.70
16970;DHT22;8601;48.718;8.992;2023-05-27T00:18:24;14.00;78.10
16970;DHT22;8601;48.718;8.992;2023-05-27T00:20:51;14.00;78.60
16970;DHT22;8601;48.718;8.992;2023-05-27T00:23:18;14.10;79.00
16970;DHT22;8601;48.718;8.992;2023-05-27T00:25:47;14.10;78.90
16970;DHT22;8601;48.718;8.992;2023-05-27T00:28:14;14.10;79.90
16970;DHT22;8601;48.718;8.992;2023-05-27T00:30:41;14.10;78.40
16970;DHT22;8601;48.718;8.992;2023-05-27T00:33:09;14.20;78.40
16970;DHT22;8601;48.718;8.992;2023-05-27T00:35:35;14.20;78.10
16970;DHT22;8601;48.718;8.992;2023-05-27T00:38:04;14.10;78.70
16970;DHT22;8601;48.718;8.992;2023-05-27T00:40:31;14.10;78.70
16970;DHT22;8601;48.718;8.992;2023-05-27T00:43:02;14.10;78.10
16970;DHT22;8601;48.718;8.992;2023-05-27T00:45:29;14.00;77.80
16970;DHT22;8601;48.718;8.992;2023-05-27T00:47:56;13.90;77.60
16970;DHT22;8601;48.718;8.992;2023-05-27T00:50:23;13.90;77.40
16970;DHT22;8601;48.718;8.992;2023-05-27T00:52:52;13.80;78.20
16970;DHT22;8601;48.718;8.992;2023-05-27T00:55:21;13.70;78.50
16970;DHT22;8601;48.718;8.992;2023-05-27T00:57:48;13.60;78.10
16970;DHT22;8601;48.718;8.992;2023-05-27T01:00:16;13.70;78.20
16970;DHT22;8601;48.718;8.992;2023-05-27T01:02:44;13.50;78.00
16970;DHT22;8601;48.718;8.992;2023-05-27T01:05:12;13.60;78.80
16970;DHT22;8601;48.718;8.992;2023-05-27T01:07:50;13.50;78.90
16970;DHT22;8601;48.718;8.992;2023-05-27T01:10:28;13.40;78.60
16970;DHT22;8601;48.718;8.992;2023-05-27T01:13:00;13.40;79.70
16970;DHT22;8601;48.718;8.992;2023-05-27T01:15:31;13.40;79.80
16970;DHT22;8601;48.718;8.992;2023-05-27T01:18:02;13.30;77.70
16970;DHT22;8601;48.718;8.992;2023-05-27T01:20:30;13.30;78.80
16970;DHT22;8601;48.718;8.992;2023-05-27T01:22:58;13.20;79.20
16970;DHT22;8601;48.718;8.992;2023-05-27T01:25:26;13.10;79.10
16970;DHT22;8601;48.718;8.992;2023-05-27T01:27:54;13.20;79.70
16970;DHT22;8601;48.718;8.992;2023-05-27T01:30:22;13.10;78.80
16970;DHT22;8601;48.718;8.992;2023-05-27T01:32:54;13.00;79.20
16970;DHT22;8601;48.718;8.992;2023-05-27T01:35:25;13.00;79.80
16970;DHT22;8601;48.718;8.992;2023-05-27T01:37:55;13.00;80.60
16970;DHT22;8601;48.718;8.992;2023-05-27T01:40:24;13.10;80.80
16970;DHT22;8601;48.718;8.992;2023-05-27T01:42:51;13.10;80.20
16970;DHT22;8601;48.718;8.992;2023-05-27T01:45:18;13.10;80.50
16970;DHT22;8601;48.718;8.992;2023-05-27T01:47:45;13.10;80.50
16970;DHT22;8601;48.718;8.992;2023-05-27T01:50:12;13.10;79.90
16970;DHT22;8601;48.718;8.992;2023-05-27T01:52:39;13.10;79.90
16970;DHT22;8601;48.718;8.992;2023-05-27T01:55:07;13.10;80.20
16970;DHT22;8601;48.718;8.992;2023-05-27T01:57:35;13.00;80.60
16970;DHT22;8601;48.718;8.992;2023-05-27T02:00:03;13.00;80.80
16970;DHT22;8601;48.718;8.992;2023-05-27T02:02:34;13.00;81.10
16970;DHT22;8601;48.718;8.992;2023-05-27T02:05:01;12.90;81.50
16970;DHT22;8601;48.718;8.992;2023-05-27T02:07:27;12.90;81.40
16970;DHT22;8601;48.718;8.992;2023-05-27T02:09:54;12.90;81.90
16970;DHT22;8601;48.718;8.992;2023-05-27T02:12:21;12.80;81.90
16970;DHT22;8601;48.718;8.992;2023-05-27T02:14:50;12.80;81.90
16970;DHT22;8601;48.718;8.992;2023-05-27T02:17:17;12.80;81.70
16970;DHT22;8601;48.718;8.992;2023-05-27T02:19:45;12.80;82.20
16970;DHT22;8601;48.718;8.992;2023-05-27T02:22:12;12.80;82.40
16970;DHT22;8601;48.718;8.992;2023-05-27T02:24:39;12.80;82.80
16970;DHT22;8601;48.718;8.992;2023-05-27T02:27:06;12.80;83.20
16970;DHT22;8601;48.718;8.992;2023-05-27T02:29:33;12.70;83.40
16970;DHT22;8601;48.718;8.992;2023-05-27T02:32:01;12.70;83.40
16970;DHT22;8601;48.718;8.992;2023-05-27T02:34:28;12.70;83.70
16970;DHT22;8601;48.718;8.992;2023-05-27T02:36:55;12.60;83.50
16970;DHT22;8601;48.718;8.992;2023-05-27T02:39:22;12.60;83.60
16970;DHT22;8601;48.718;8.992;2023-05-27T02:41:49;12.50;83.70
16970;DHT22;8601;48.718;8.992;2023-05-27T02:44:16;12.40;83.80
16970;DHT22;8601;48.718;8.992;2023-05-27T02:46:43;12.40;84.20
16970;DHT22;8601;48.718;8.992;2023-05-27T02:49:11;12.30;84.10
16970;DHT22;8601;48.718;8.992;2023-05-27T02:51:38;12.30;84.50
16970;DHT22;8601;48.718;8.992;2023-05-27T02:54:05;12.20;84.50
16970;DHT22;8601;48.718;8.992;2023-05-27T02:56:32;12.20;84.30
16970;DHT22;8601;48.718;8.992;2023-05-27T02:58:59;12.20;84.30
16970;DHT22;8601;48.718;8.992;2023-05-27T03:01:26;12.30;84.40
16970;DHT22;8601;48.718;8.992;2023-05-27T03:03:53;12.10;84.30
16970;DHT22;8601;48.718;8.992;2023-05-27T03:06:21;12.10;84.90
16970;DHT22;8601;48.718;8.992;2023-05-27T03:08:48;12.00;84.60
16970;DHT22;8601;48.718;8.992;2023-05-27T03:11:15;11.90;84.70
16970;DHT22;8601;48.718;8.992;2023-05-27T03:13:42;12.00;85.20
16970;DHT22;8601;48.718;8.992;2023-05-27T03:16:09;12.00;85.30
16970;DHT22;8601;48.718;8.992;2023-05-27T03:18:36;12.00;85.60
16970;DHT22;8601;48.718;8.992;2023-05-27T03:21:04;12.00;85.50
16970;DHT22;8601;48.718;8.992;2023-05-27T03:23:33;12.00;85.90
16970;DHT22;8601;48.718;8.992;2023-05-27T03:26:00;12.00;85.80
16970;DHT22;8601;48.718;8.992;2023-05-27T03:28:27;12.10;86.00
16970;DHT22;8601;48.718;8.992;2023-05-27T03:30:54;12.10;85.80
16970;DHT22;8601;48.718;8.992;2023-05-27T03:33:21;12.00;85.60
16970;DHT22;8601;48.718;8.992;2023-05-27T03:35:49;12.10;85.90
16970;DHT22;8601;48.718;8.992;2023-05-27T03:38:16;12.10;85.90
16970;DHT22;8601;48.718;8.992;2023-05-27T03:40:44;12.10;86.00
16970;DHT22;8601;48.718;8.992;2023-05-27T03:43:11;12.10;86.20
16970;DHT22;8601;48.718;8.992;2023-05-27T03:45:37;12.10;85.90
16970;DHT22;8601;48.718;8.992;2023-05-27T03:48:05;12.00;85.70
16970;DHT22;8601;48.718;8.992;2023-05-27T03:50:32;12.10;85.80
16970;DHT22;8601;48.718;8.992;2023-05-27T03:52:59;12.00;86.40
16970;DHT22;8601;48.718;8.992;2023-05-27T03:55:26;12.00;86.60
16970;DHT22;8601;48.718;8.992;2023-05-27T03:57:54;12.00;86.40
16970;DHT22;8601;48.718;8.992;2023-05-27T04:00:21;12.00;87.00
16970;DHT22;8601;48.718;8.992;2023-05-27T04:02:49;11.90;87.20
16970;DHT22;8601;48.718;8.992;2023-05-27T04:05:15;11.90;87.50
16970;DHT22;8601;48.718;8.992;2023-05-27T04:07:45;11.90;87.30
16970;DHT22;8601;48.718;8.992;2023-05-27T04:10:12;11.80;87.70
16970;DHT22;8601;48.718;8.992;2023-05-27T04:12:39;11.90;88.20
16970;DHT22;8601;48.718;8.992;2023-05-27T04:15:09;11.80;88.10
16970;DHT22;8601;48.718;8.992;2023-05-27T04:17:37;11.80;88.30
16970;DHT22;8601;48.718;8.992;2023-05-27T04:20:05;11.70;88.30
16970;DHT22;8601;48.718;8.992;2023-05-27T04:22:39;11.80;88.60
16970;DHT22;8601;48.718;8.992;2023-05-27T04:25:06;11.80;88.80
16970;DHT22;8601;48.718;8.992;2023-05-27T04:27:34;11.80;88.90
16970;DHT22;8601;48.718;8.992;2023-05-27T04:30:02;11.70;89.10
16970;DHT22;8601;48.718;8.992;2023-05-27T04:32:30;11.70;89.40
16970;DHT22;8601;48.718;8.992;2023-05-27T04:34:58;11.70;89.10
16970;DHT22;8601;48.718;8.992;2023-05-27T04:37:26;11.60;89.70
16970;DHT22;8601;48.718;8.992;2023-05-27T04:39:54;11.60;89.70
16970;DHT22;8601;48.718;8.992;2023-05-27T04:42:23;11.70;90.10
16970;DHT22;8601;48.718;8.992;2023-05-27T04:44:50;11.70;89.90
16970;DHT22;8601;48.718;8.992;2023-05-27T04:47:17;11.70;90.20
16970;DHT22;8601;48.718;8.992;2023-05-27T04:49:47;11.60;90.20
16970;DHT22;8601;48.718;8.992;2023-05-27T04:52:14;11.50;90.30
16970;DHT22;8601;48.718;8.992;2023-05-27T04:54:42;11.70;90.40
16970;DHT22;8601;48.718;8.992;2023-05-27T04:57:09;11.70;90.30
16970;DHT22;8601;48.718;8.992;2023-05-27T04:59:36;11.70;90.30
16970;DHT22;8601;48.718;8.992;2023-05-27T05:02:25;11.70;90.40
16970;DHT22;8601;48.718;8.992;2023-05-27T05:05:00;11.80;90.50
16970;DHT22;8601;48.718;8.992;2023-05-27T05:07:27;11.80;90.60
16970;DHT22;8601;48.718;8.992;2023-05-27T05:09:55;11.80;90.60
16970;DHT22;8601;48.718;8.992;2023-05-27T05:12:22;11.90;90.60
16970;DHT22;8601;48.718;8.992;2023-05-27T05:14:49;11.90;90.70
16970;DHT22;8601;48.718;8.992;2023-05-27T05:17:16;11.90;90.60
16970;DHT22;8601;48.718;8.992;2023-05-27T05:19:43;12.00;90.60
16970;DHT22;8601;48.718;8.992;2023-05-27T05:22:12;12.00;90.60
16970;DHT22;8601;48.718;8.992;2023-05-27T05:24:39;12.10;90.80
16970;DHT22;8601;48.718;8.992;2023-05-27T05:27:06;12.20;90.90
16970;DHT22;8601;48.718;8.992;2023-05-27T05:29:33;12.20;90.90
16970;DHT22;8601;48.718;8.992;2023-05-27T05:32:00;12.10;91.00
16970;DHT22;8601;48.718;8.992;2023-05-27T05:34:27;12.10;90.80
16970;DHT22;8601;48.718;8.992;2023-05-27T05:36:54;12.20;91.10
16970;DHT22;8601;48.718;8.992;2023-05-27T05:39:22;12.20;90.50
16970;DHT22;8601;48.718;8.992;2023-05-27T05:41:50;12.30;90.70
16970;DHT22;8601;48.718;8.992;2023-05-27T05:44:17;12.40;90.90
16970;DHT22;8601;48.718;8.992;2023-05-27T05:46:44;12.50;90.90
16970;DHT22;8601;48.718;8.992;2023-05-27T05:49:12;12.50;90.90
16970;DHT22;8601;48.718;8.992;2023-05-27T05:51:39;12.60;91.00
16970;DHT22;8601;48.718;8.992;2023-05-27T05:54:06;12.60;91.10
16970;DHT22;8601;48.718;8.992;2023-05-27T05:56:35;12.60;90.70
16970;DHT22;8601;48.718;8.992;2023-05-27T05:59:01;12.70;90.80
16970;DHT22;8601;48.718;8.992;2023-05-27T06:01:28;12.70;90.90
16970;DHT22;8601;48.718;8.992;2023-05-27T06:03:55;12.70;90.80
16970;DHT22;8601;48.718;8.992;2023-05-27T06:06:23;12.80;90.70
16970;DHT22;8601;48.718;8.992;2023-05-27T06:08:50;12.80;90.80
16970;DHT22;8601;48.718;8.992;2023-05-27T06:11:17;12.90;90.90
16970;DHT22;8601;48.718;8.992;2023-05-27T06:13:45;12.90;90.80
16970;DHT22;8601;48.718;8.992;2023-05-27T06:16:12;13.00;90.80
16970;DHT22;8601;48.718;8.992;2023-05-27T06:18:39;13.10;90.80
16970;DHT22;8601;48.718;8.992;2023-05-27T06:21:06;13.10;91.00
16970;DHT22;8601;48.718;8.992;2023-05-27T06:23:33;13.20;90.20
16970;DHT22;8601;48.718;8.992;2023-05-27T06:25:59;13.30;90.60
16970;DHT22;8601;48.718;8.992;2023-05-27T06:28:26;13.40;90.20
16970;DHT22;8601;48.718;8.992;2023-05-27T06:30:54;13.50;90.30
16970;DHT22;8601;48.718;8.992;2023-05-27T06:33:21;13.60;90.00
16970;DHT22;8601;48.718;8.992;2023-05-27T06:35:49;13.70;88.60
16970;DHT22;8601;48.718;8.992;2023-05-27T06:38:15;13.80;87.50
16970;DHT22;8601;48.718;8.992;2023-05-27T06:40:43;13.90;89.40
16970;DHT22;8601;48.718;8.992;2023-05-27T06:43:09;14.00;87.00
16970;DHT22;8601;48.718;8.992;2023-05-27T06:45:36;14.10;85.40
16970;DHT22;8601;48.718;8.992;2023-05-27T06:48:05;14.20;84.00
16970;DHT22;8601;48.718;8.992;2023-05-27T06:50:32;14.40;82.10
16970;DHT22;8601;48.718;8.992;2023-05-27T06:52:59;14.30;87.40
16970;DHT22;8601;48.718;8.992;2023-05-27T06:55:26;14.40;84.00
16970;DHT22;8601;48.718;8.992;2023-05-27T06:57:53;14.50;86.50
16970;DHT22;8601;48.718;8.992;2023-05-27T07:00:20;14.60;82.70
16970;DHT22;8601;48.718;8.992;2023-05-27T07:02:48;14.70;82.20
16970;DHT22;8601;48.718;8.992;2023-05-27T07:05:16;14.70;84.60
16970;DHT22;8601;48.718;8.992;2023-05-27T07:07:46;14.80;81.60
16970;DHT22;8601;48.718;8.992;2023-05-27T07:10:12;14.80;82.70
16970;DHT22;8601;48.718;8.992;2023-05-27T07:12:39;15.00;81.60
16970;DHT22;8601;48.718;8.992;2023-05-27T07:15:07;15.10;81.70
16970;DHT22;8601;48.718;8.992;2023-05-27T07:17:35;15.20;81.20
16970;DHT22;8601;48.718;8.992;2023-05-27T07:20:02;15.40;81.90
16970;DHT22;8601;48.718;8.992;2023-05-27T07:22:30;15.70;80.10
16970;DHT22;8601;48.718;8.992;2023-05-27T07:24:57;16.00;80.50
16970;DHT22;8601;48.718;8.992;2023-05-27T07:27:24;16.10;79.70
16970;DHT22;8601;48.718;8.992;2023-05-27T07:29:51;16.10;80.20
16970;DHT22;8601;48.718;8.992;2023-05-27T07:32:19;16.20;79.00
16970;DHT22;8601;48.718;8.992;2023-05-27T07:34:47;16.50;80.50
16970;DHT22;8601;48.718;8.992;2023-05-27T07:37:14;16.40;77.80
16970;DHT22;8601;48.718;8.992;2023-05-27T07:39:42;16.50;77.90
16970;DHT22;8601;48.718;8.992;2023-05-27T07:42:09;16.50;77.30
16970;DHT22;8601;48.718;8.992;2023-05-27T07:44:36;16.70;81.20
16970;DHT22;8601;48.718;8.992;2023-05-27T07:47:03;16.90;79.50
16970;DHT22;8601;48.718;8.992;2023-05-27T07:49:31;16.80;77.60
16970;DHT22;8601;48.718;8.992;2023-05-27T07:51:58;16.70;76.20
16970;DHT22;8601;48.718;8.992;2023-05-27T07:54:25;16.60;79.00
16970;DHT22;8601;48.718;8.992;2023-05-27T07:56:54;16.70;74.80
16970;DHT22;8601;48.718;8.992;2023-05-27T07:59:23;16.90;74.60
16970;DHT22;8601;48.718;8.992;2023-05-27T08:01:50;16.80;74.10
16970;DHT22;8601;48.718;8.992;2023-05-27T08:04:17;16.90;75.70
16970;DHT22;8601;48.718;8.992;2023-05-27T08:06:44;16.90;75.50
16970;DHT22;8601;48.718;8.992;2023-05-27T08:09:11;17.20;75.90
16970;DHT22;8601;48.718;8.992;2023-05-27T08:11:38;17.30;74.20
16970;DHT22;8601;48.718;8.992;2023-05-27T08:14:06;17.40;74.50
16970;DHT22;8601;48.718;8.992;2023-05-27T08:16:33;17.40;74.10
16970;DHT22;8601;48.718;8.992;2023-05-27T08:19:00;17.40;73.80
16970;DHT22;8601;48.718;8.992;2023-05-27T08:21:27;17.70;72.50
16970;DHT22;8601;48.718;8.992;2023-05-27T08:23:54;17.90;76.00
16970;DHT22;8601;48.718;8.992;2023-05-27T08:26:22;18.10;72.30
16970;DHT22;8601;48.718;8.992;2023-05-27T08:28:49;18.20;71.10
16970;DHT22;8601;48.718;8.992;2023-05-27T08:31:17;18.20;72.70
16970;DHT22;8601;48.718;8.992;2023-05-27T08:33:44;18.40;70.50
16970;DHT22;8601;48.718;8.992;2023-05-27T08:36:11;18.40;72.10
16970;DHT22;8601;48.718;8.992;2023-05-27T08:38:40;18.50;71.10
16970;DHT22;8601;48.718;8.992;2023-05-27T08:41:07;18.60;70.20
16970;DHT22;8601;48.718;8.992;2023-05-27T08:43:34;18.80;68.90
16970;DHT22;8601;48.718;8.992;2023-05-27T08:46:01;18.80;69.50
16970;DHT22;8601;48.718;8.992;2023-05-27T08:48:31;18.90;70.80
16970;DHT22;8601;48.718;8.992;2023-05-27T08:50:58;19.00;69.20
16970;DHT22;8601;48.718;8.992;2023-05-27T08:53:28;19.10;70.60
16970;DHT22;8601;48.718;8.992;2023-05-27T08:55:58;19.50;70.30
16970;DHT22;8601;48.718;8.992;2023-05-27T08:58:27;19.60;68.90
16970;DHT22;8601;48.718;8.992;2023-05-27T09:00:54;19.90;66.90
16970;DHT22;8601;48.718;8.992;2023-05-27T09:03:21;20.00;65.30
16970;DHT22;8601;48.718;8.992;2023-05-27T09:05:50;20.20;66.00
16970;DHT22;8601;48.718;8.992;2023-05-27T09:08:19;20.30;66.80
16970;DHT22;8601;48.718;8.992;2023-05-27T09:10:46;20.40;67.70
16970;DHT22;8601;48.718;8.992;2023-05-27T09:13:13;20.70;65.20
16970;DHT22;8601;48.718;8.992;2023-05-27T09:15:40;20.90;64.50
16970;DHT22;8601;48.718;8.992;2023-05-27T09:18:08;20.90;65.20
16970;DHT22;8601;48.718;8.992;2023-05-27T09:20:35;21.00;64.50
16970;DHT22;8601;48.718;8.992;2023-05-27T09:23:04;21.20;64.40
16970;DHT22;8601;48.718;8.992;2023-05-27T09:25:35;21.30;62.40
16970;DHT22;8601;48.718;8.992;2023-05-27T09:28:04;21.50;62.10
16970;DHT22;8601;48.718;8.992;2023-05-27T09:30:33;21.60;63.10
16970;DHT22;8601;48.718;8.992;2023-05-27T09:33:01;21.60;64.60
16970;DHT22;8601;48.718;8.992;2023-05-27T09:35:29;21.80;62.20
16970;DHT22;8601;48.718;8.992;2023-05-27T09:38:06;22.00;60.70
16970;DHT22;8601;48.718;8.992;2023-05-27T09:40:36;22.20;63.30
16970;DHT22;8601;48.718;8.992;2023-05-27T09:43:03;22.50;60.10
16970;DHT22;8601;48.718;8.992;2023-05-27T09:45:31;22.50;60.00
16970;DHT22;8601;48.718;8.992;2023-05-27T09:48:00;22.60;61.10
16970;DHT22;8601;48.718;8.992;2023-05-27T09:50:30;22.70;60.50
16970;DHT22;8601;48.718;8.992;2023-05-27T09:52:58;22.80;60.00
16970;DHT22;8601;48.718;8.992;2023-05-27T09:55:28;23.00;58.30
16970;DHT22;8601;48.718;8.992;2023-05-27T09:57:55;23.10;57.70
16970;DHT22;8601;48.718;8.992;2023-05-27T10:00:23;23.30;57.70
16970;DHT22;8601;48.718;8.992;2023-05-27T10:02:52;23.30;56.40
16970;DHT22;8601;48.718;8.992;2023-05-27T10:05:23;23.30;57.70
16970;DHT22;8601;48.718;8.992;2023-05-27T10:07:50;23.30;57.70
16970;DHT22;8601;48.718;8.992;2023-05-27T10:10:18;23.10;58.70
16970;DHT22;8601;48.718;8.992;2023-05-27T10:12:49;22.80;59.40
16970;DHT22;8601;48.718;8.992;2023-05-27T10:15:24;23.20;59.00
16970;DHT22;8601;48.718;8.992;2023-05-27T10:17:53;23.40;58.00
16970;DHT22;8601;48.718;8.992;2023-05-27T10:20:27;23.60;56.30
16970;DHT22;8601;48.718;8.992;2023-05-27T10:22:55;23.50;57.10
16970;DHT22;8601;48.718;8.992;2023-05-27T10:25:23;23.20;58.30
16970;DHT22;8601;48.718;8.992;2023-05-27T10:28:03;23.50;57.90
16970;DHT22;8601;48.718;8.992;2023-05-27T10:30:30;23.50;57.90
16970;DHT22;8601;48.718;8.992;2023-05-27T10:33:09;23.60;57.60
16970;DHT22;8601;48.718;8.992;2023-05-27T10:35:39;24.00;57.20
16970;DHT22;8601;48.718;8.992;2023-05-27T10:38:18;24.20;56.60
16970;DHT22;8601;48.718;8.992;2023-05-27T10:40:46;24.20;56.00
16970;DHT22;8601;48.718;8.992;2023-05-27T10:43:18;24.40;54.40
16970;DHT22;8601;48.718;8.992;2023-05-27T10:45:45;24.10;55.20
16970;DHT22;8601;48.718;8.992;2023-05-27T10:48:17;24.20;56.50
16970;DHT22;8601;48.718;8.992;2023-05-27T10:50:50;24.40;56.30
16970;DHT22;8601;48.718;8.992;2023-05-27T10:53:18;24.40;54.50
16970;DHT22;8601;48.718;8.992;2023-05-27T10:55:47;24.50;55.20
16970;DHT22;8601;48.718;8.992;2023-05-27T10:58:17;24.50;53.90
16970;DHT22;8601;48.718;8.992;2023-05-27T11:00:44;24.00;53.40
16970;DHT22;8601;48.718;8.992;2023-05-27T11:03:19;24.10;55.30
16970;DHT22;8601;48.718;8.992;2023-05-27T11:05:56;24.40;54.90
16970;DHT22;8601;48.718;8.992;2023-05-27T11:08:23;24.60;56.00
16970;DHT22;8601;48.718;8.992;2023-05-27T11:10:50;24.40;53.10
16970;DHT22;8601;48.718;8.992;2023-05-27T11:13:18;24.10;55.10
16970;DHT22;8601;48.718;8.992;2023-05-27T11:15:45;24.30;54.10
16970;DHT22;8601;48.718;8.992;2023-05-27T11:18:14;24.60;55.70
16970;DHT22;8601;48.718;8.992;2023-05-27T11:20:41;24.60;53.50
16970;DHT22;8601;48.718;8.992;2023-05-27T11:23:08;24.60;53.00
16970;DHT22;8601;48.718;8.992;2023-05-27T11:25:42;24.70;54.40
16970;DHT22;8601;48.718;8.992;2023-05-27T11:28:17;24.80;53.70
16970;DHT22;8601;48.718;8.992;2023-05-27T11:30:45;24.80;52.00
16970;DHT22;8601;48.718;8.992;2023-05-27T11:33:13;24.80;52.80
16970;DHT22;8601;48.718;8.992;2023-05-27T11:35:40;24.90;52.60
16970;DHT22;8601;48.718;8.992;2023-05-27T11:38:16;24.60;52.10
16970;DHT22;8601;48.718;8.992;2023-05-27T11:40:43;24.50;52.60
16970;DHT22;8601;48.718;8.992;2023-05-27T11:43:17;24.70;52.20
16970;DHT22;8601;48.718;8.992;2023-05-27T11:45:44;24.90;52.90
16970;DHT22;8601;48.718;8.992;2023-05-27T11:48:12;24.90;53.20
16970;DHT22;8601;48.718;8.992;2023-05-27T11:50:40;24.90;53.00
16970;DHT22;8601;48.718;8.992;2023-05-27T11:53:07;24.70;52.30
16970;DHT22;8601;48.718;8.992;2023-05-27T11:55:33;24.80;52.60
16970;DHT22;8601;48.718;8.992;2023-05-27T11:58:00;24.90;52.70
16970;DHT22;8601;48.718;8.992;2023-05-27T12:00:29;25.20;52.70
16970;DHT22;8601;48.718;8.992;2023-05-27T12:02:56;24.90;50.20
16970;DHT22;8601;48.718;8.992;2023-05-27T12:05:23;24.90;50.50
16970;DHT22;8601;48.718;8.992;2023-05-27T12:07:56;25.00;49.80
16970;DHT22;8601;48.718;8.992;2023-05-27T12:10:23;24.90;51.50
16970;DHT22;8601;48.718;8.992;2023-05-27T12:12:50;24.90;52.10
16970;DHT22;8601;48.718;8.992;2023-05-27T12:15:17;25.00;50.40
16970;DHT22;8601;48.718;8.992;2023-05-27T12:17:46;25.00;50.80
16970;DHT22;8601;48.718;8.992;2023-05-27T12:20:13;25.00;50.50
16970;DHT22;8601;48.718;8.992;2023-05-27T12:22:41;25.00;50.60
16970;DHT22;8601;48.718;8.992;2023-05-27T12:25:08;25.00;49.40
16970;DHT22;8601;48.718;8.992;2023-05-27T12:27:36;25.10;50.50
16970;DHT22;8601;48.718;8.992;2023-05-27T12:30:04;25.00;50.90
16970;DHT22;8601;48.718;8.992;2023-05-27T12:32:31;24.90;51.40
16970;DHT22;8601;48.718;8.992;2023-05-27T12:34:59;25.00;48.40
16970;DHT22;8601;48.718;8.992;2023-05-27T12:37:26;25.00;50.70
16970;DHT22;8601;48.718;8.992;2023-05-27T12:39:54;24.90;50.00
16970;DHT22;8601;48.718;8.992;2023-05-27T12:42:21;25.00;50.80
16970;DHT22;8601;48.718;8.992;2023-05-27T12:44:48;25.20;49.10
16970;DHT22;8601;48.718;8.992;2023-05-27T12:47:15;25.20;48.50
16970;DHT22;8601;48.718;8.992;2023-05-27T12:49:41;25.20;49.40
16970;DHT22;8601;48.718;8.992;2023-05-27T12:52:10;25.30;48.70
16970;DHT22;8601;48.718;8.992;2023-05-27T12:54:37;25.20;48.90
16970;DHT22;8601;48.718;8.992;2023-05-27T12:57:04;25.20;49.10
16970;DHT22;8601;48.718;8.992;2023-05-27T12:59:33;25.20;48.10
16970;DHT22;8601;48.718;8.992;2023-05-27T13:02:00;25.30;47.60
16970;DHT22;8601;48.718;8.992;2023-05-27T13:04:27;25.50;48.20
16970;DHT22;8601;48.718;8.992;2023-05-27T13:06:54;25.50;47.80
16970;DHT22;8601;48.718;8.992;2023-05-27T13:09:22;25.40;48.00
16970;DHT22;8601;48.718;8.992;2023-05-27T13:11:49;25.30;46.90
16970;DHT22;8601;48.718;8.992;2023-05-27T13:14:16;25.20;47.30
16970;DHT22;8601;48.718;8.992;2023-05-27T13:16:43;25.20;45.70
16970;DHT22;8601;48.718;8.992;2023-05-27T13:19:10;25.10;45.50
16970;DHT22;8601;48.718;8.992;2023-05-27T13:21:37;25.20;46.00
16970;DHT22;8601;48.718;8.992;2023-05-27T13:24:04;25.20;47.20
16970;DHT22;8601;48.718;8.992;2023-05-27T13:26:33;25.30;48.10
16970;DHT22;8601;48.718;8.992;2023-05-27T13:29:00;25.50;46.30
16970;DHT22;8601;48.718;8.992;2023-05-27T13:31:28;25.70;46.60
16970;DHT22;8601;48.718;8.992;2023-05-27T13:33:55;25.70;45.40
16970;DHT22;8601;48.718;8.992;2023-05-27T13:36:22;25.80;45.10
16970;DHT22;8601;48.718;8.992;2023-05-27T13:38:49;25.60;46.60
16970;DHT22;8601;48.718;8.992;2023-05-27T13:41:15;25.50;45.00
16970;DHT22;8601;48.718;8.992;2023-05-27T13:43:51;25.60;47.10
16970;DHT22;8601;48.718;8.992;2023-05-27T13:46:18;25.60;48.80
16970;DHT22;8601;48.718;8.992;2023-05-27T13:48:45;25.50;48.70
16970;DHT22;8601;48.718;8.992;2023-05-27T13:51:12;25.20;48.90
16970;DHT22;8601;48.718;8.992;2023-05-27T13:53:39;25.30;49.90
16970;DHT22;8601;48.718;8.992;2023-05-27T13:56:06;25.30;50.20
16970;DHT22;8601;48.718;8.992;2023-05-27T13:58:34;25.30;49.30
16970;DHT22;8601;48.718;8.992;2023-05-27T14:01:02;25.50;49.90
16970;DHT22;8601;48.718;8.992;2023-05-27T14:03:29;25.50;50.00
16970;DHT22;8601;48.718;8.992;2023-05-27T14:06:03;25.40;49.60
16970;DHT22;8601;48.718;8.992;2023-05-27T14:08:31;25.50;49.40
16970;DHT22;8601;48.718;8.992;2023-05-27T14:10:57;25.50;50.20
16970;DHT22;8601;48.718;8.992;2023-05-27T14:13:24;25.10;49.30
16970;DHT22;8601;48.718;8.992;2023-05-27T14:15:51;25.00;48.70
16970;DHT22;8601;48.718;8.992;2023-05-27T14:18:20;25.00;49.40
16970;DHT22;8601;48.718;8.992;2023-05-27T14:20:47;25.00;51.10
16970;DHT22;8601;48.718;8.992;2023-05-27T14:23:14;25.00;49.40
16970;DHT22;8601;48.718;8.992;2023-05-27T14:25:41;25.30;49.20
16970;DHT22;8601;48.718;8.992;2023-05-27T14:28:14;25.30;48.30
16970;DHT22;8601;48.718;8.992;2023-05-27T14:30:41;25.30;47.50
16970;DHT22;8601;48.718;8.992;2023-05-27T14:33:08;25.30;48.00
16970;DHT22;8601;48.718;8.992;2023-05-27T14:35:38;25.20;48.00
16970;DHT22;8601;48.718;8.992;2023-05-27T14:38:06;25.10;49.40
16970;DHT22;8601;48.718;8.992;2023-05-27T14:40:33;25.20;49.20
16970;DHT22;8601;48.718;8.992;2023-05-27T14:43:00;25.10;49.80
16970;DHT22;8601;48.718;8.992;2023-05-27T14:45:28;25.00;48.80
16970;DHT22;8601;48.718;8.992;2023-05-27T14:47:56;25.00;47.80
16970;DHT22;8601;48.718;8.992;2023-05-27T14:50:23;24.90;48.10
16970;DHT22;8601;48.718;8.992;2023-05-27T14:52:52;25.00;49.10
16970;DHT22;8601;48.718;8.992;2023-05-27T14:55:20;25.10;49.70
16970;DHT22;8601;48.718;8.992;2023-05-27T14:57:47;25.00;47.30
16970;DHT22;8601;48.718;8.992;2023-05-27T15:00:14;25.10;48.50
16970;DHT22;8601;48.718;8.992;2023-05-27T15:02:42;25.20;49.30
16970;DHT22;8601;48.718;8.992;2023-05-27T15:05:09;25.30;47.80
16970;DHT22;8601;48.718;8.992;2023-05-27T15:07:37;25.20;48.10
16970;DHT22;8601;48.718;8.992;2023-05-27T15:10:07;25.20;47.50
16970;DHT22;8601;48.718;8.992;2023-05-27T15:12:40;25.10;46.80
16970;DHT22;8601;48.718;8.992;2023-05-27T15:15:10;25.00;46.70
16970;DHT22;8601;48.718;8.992;2023-05-27T15:17:38;24.90;47.60
16970;DHT22;8601;48.718;8.992;2023-05-27T15:20:07;25.00;47.50
16970;DHT22;8601;48.718;8.992;2023-05-27T15:22:34;24.90;46.40
16970;DHT22;8601;48.718;8.992;2023-05-27T15:25:01;25.00;45.40
16970;DHT22;8601;48.718;8.992;2023-05-27T15:27:29;25.10;43.90
16970;DHT22;8601;48.718;8.992;2023-05-27T15:29:56;25.20;44.50
16970;DHT22;8601;48.718;8.992;2023-05-27T15:32:24;25.30;44.40
16970;DHT22;8601;48.718;8.992;2023-05-27T15:34:51;25.20;43.10
16970;DHT22;8601;48.718;8.992;2023-05-27T15:37:18;25.10;43.80
16970;DHT22;8601;48.718;8.992;2023-05-27T15:39:45;25.10;42.40
16970;DHT22;8601;48.718;8.992;2023-05-27T15:42:12;25.00;42.60
16970;DHT22;8601;48.718;8.992;2023-05-27T15:44:40;24.80;41.60
16970;DHT22;8601;48.718;8.992;2023-05-27T15:47:07;24.80;40.80
16970;DHT22;8601;48.718;8.992;2023-05-27T15:49:35;24.80;41.20